createdAt,value
2023-01-29T00:02:12.230Z,9.85
2023-01-29T00:04:38.723Z,9.57
2023-01-29T00:07:05.198Z,10.13
2023-01-29T00:09:32.172Z,11.27
2023-01-29T00:11:58.604Z,10.87
2023-01-29T00:14:26.319Z,9.97
2023-01-29T00:16:54.325Z,10.33
2023-01-29T00:19:23.302Z,10.10
2023-01-29T00:21:49.766Z,9.47
2023-01-29T00:24:18.827Z,8.83
2023-01-29T00:26:45.285Z,11.00
2023-01-29T00:29:12.001Z,8.80
2023-01-29T00:31:38.510Z,9.53
2023-01-29T00:34:04.881Z,10.13
2023-01-29T00:36:31.251Z,10.93
2023-01-29T00:39:01.721Z,9.57
2023-01-29T00:41:51.236Z,10.27
2023-01-29T00:44:36.428Z,11.83
2023-01-29T00:47:03.884Z,10.57
2023-01-29T00:49:30.522Z,11.90
2023-01-29T00:52:16.032Z,11.90
2023-01-29T00:54:42.624Z,10.47
2023-01-29T00:57:09.130Z,11.50
2023-01-29T00:59:35.457Z,12.70
2023-01-29T01:02:20.572Z,12.33
2023-01-29T01:04:47.206Z,11.50
2023-01-29T01:07:13.559Z,12.53
2023-01-29T01:09:58.714Z,10.37
2023-01-29T01:12:25.382Z,11.17
2023-01-29T01:14:51.821Z,12.40
2023-01-29T01:17:18.176Z,10.47
2023-01-29T01:19:45.111Z,10.83
2023-01-29T01:22:12.094Z,10.30
2023-01-29T01:24:39.125Z,11.77
2023-01-29T01:27:06.314Z,13.37
2023-01-29T01:29:33.174Z,11.37
2023-01-29T01:32:02.583Z,10.77
2023-01-29T01:34:29.144Z,10.90
2023-01-29T01:36:59.154Z,11.13
2023-01-29T01:39:25.708Z,13.17
2023-01-29T01:41:53.630Z,10.30
2023-01-29T01:44:52.556Z,10.97
2023-01-29T01:47:33.932Z,10.35
2023-01-29T01:50:12.343Z,9.60
2023-01-29T01:52:45.073Z,11.87
2023-01-29T01:55:14.460Z,10.57
2023-01-29T01:57:44.635Z,11.63
2023-01-29T02:00:15.730Z,11.57
2023-01-29T02:03:03.475Z,9.30
2023-01-29T02:05:51.161Z,10.83
2023-01-29T02:08:54.095Z,9.50
2023-01-29T02:11:20.537Z,12.17
2023-01-29T02:13:47.073Z,11.77
2023-01-29T02:16:13.549Z,9.60
2023-01-29T02:18:39.937Z,9.55
2023-01-29T02:21:30.552Z,12.50
2023-01-29T02:24:28.932Z,11.40
2023-01-29T02:27:02.993Z,10.47
2023-01-29T02:29:57.155Z,9.60
2023-01-29T02:32:36.218Z,10.37
2023-01-29T02:35:32.077Z,11.27
2023-01-29T02:38:17.899Z,10.57
2023-01-29T02:40:49.795Z,10.60
2023-01-29T02:43:40.404Z,9.75
2023-01-29T02:46:39.333Z,10.30
2023-01-29T02:49:37.693Z,10.73
2023-01-29T02:52:21.512Z,10.10
2023-01-29T02:55:04.827Z,11.53
2023-01-29T02:57:44.583Z,11.57
2023-01-29T03:00:17.360Z,11.87
2023-01-29T03:02:54.260Z,10.37
2023-01-29T03:05:44.795Z,13.13
2023-01-29T03:08:15.526Z,12.40
2023-01-29T03:10:54.445Z,14.23
2023-01-29T03:13:45.574Z,14.10
2023-01-29T03:16:34.855Z,13.97
2023-01-29T03:19:22.843Z,14.13
2023-01-29T03:21:59.979Z,13.17
2023-01-29T03:24:50.507Z,13.23
2023-01-29T03:27:39.412Z,14.50
2023-01-29T03:30:28.707Z,12.73
2023-01-29T03:32:59.200Z,14.43
2023-01-29T03:35:39.350Z,16.57
2023-01-29T03:38:11.348Z,16.37
2023-01-29T03:40:56.305Z,16.02
2023-01-29T03:43:46.881Z,15.20
2023-01-29T03:46:24.432Z,14.00
2023-01-29T03:49:11.916Z,15.57
2023-01-29T03:52:01.751Z,18.27
2023-01-29T03:55:06.909Z,15.93
2023-01-29T03:57:41.754Z,14.80
2023-01-29T04:00:21.186Z,14.90
2023-01-29T04:03:14.216Z,17.97
2023-01-29T04:06:09.854Z,15.27
2023-01-29T04:08:51.015Z,16.87
2023-01-29T04:11:20.794Z,17.33
2023-01-29T04:13:47.874Z,17.23
2023-01-29T04:16:20.720Z,17.83
2023-01-29T04:18:48.503Z,18.40
2023-01-29T04:21:16.105Z,17.67
2023-01-29T04:23:42.576Z,17.87
2023-01-29T04:26:35.771Z,17.07
2023-01-29T04:29:24.996Z,18.03
2023-01-29T04:32:15.065Z,19.47
2023-01-29T04:35:15.928Z,18.90
2023-01-29T04:37:54.489Z,17.57
2023-01-29T04:40:28.683Z,17.97
2023-01-29T04:43:06.254Z,17.40
2023-01-29T04:46:04.563Z,19.00
2023-01-29T04:48:45.727Z,18.13
2023-01-29T04:51:25.003Z,19.23
2023-01-29T04:54:08.046Z,18.13
2023-01-29T04:56:40.164Z,19.20
2023-01-29T04:59:15.080Z,18.20
2023-01-29T05:01:41.966Z,17.13
2023-01-29T05:04:14.152Z,17.03
2023-01-29T05:06:42.008Z,17.85
2023-01-29T05:09:09.773Z,18.13
2023-01-29T05:11:38.467Z,17.67
2023-01-29T05:14:08.875Z,18.50
2023-01-29T05:16:44.188Z,17.60
2023-01-29T05:19:13.428Z,17.10
2023-01-29T05:21:42.261Z,17.03
2023-01-29T05:24:10.285Z,19.67
2023-01-29T05:26:55.567Z,17.67
2023-01-29T05:29:22.175Z,19.23
2023-01-29T05:31:48.670Z,18.83
2023-01-29T05:34:15.147Z,18.10
2023-01-29T05:36:41.592Z,17.67
2023-01-29T05:39:08.001Z,18.13
2023-01-29T05:41:34.415Z,16.67
2023-01-29T05:44:00.848Z,16.93
2023-01-29T05:46:27.261Z,17.00
2023-01-29T05:48:53.654Z,17.77
2023-01-29T05:51:20.116Z,16.00
2023-01-29T05:53:46.549Z,18.33
2023-01-29T05:56:13.009Z,19.10
2023-01-29T05:58:39.398Z,18.23
2023-01-29T06:01:10.268Z,19.33
2023-01-29T06:03:36.683Z,18.23
2023-01-29T06:06:03.272Z,17.37
2023-01-29T06:08:29.606Z,15.63
2023-01-29T06:10:56.071Z,18.40
2023-01-29T06:13:23.694Z,19.67
2023-01-29T06:15:50.239Z,17.03
2023-01-29T06:18:16.740Z,18.20
2023-01-29T06:20:43.164Z,19.90
2023-01-29T06:23:09.648Z,19.17
2023-01-29T06:25:36.074Z,18.67
2023-01-29T06:28:02.475Z,18.53
2023-01-29T06:30:29.000Z,18.93
2023-01-29T06:32:58.718Z,19.43
2023-01-29T06:35:25.784Z,21.80
2023-01-29T06:37:52.311Z,19.47
2023-01-29T06:40:19.173Z,16.67
2023-01-29T06:42:46.231Z,20.30
2023-01-29T06:45:12.809Z,18.97
2023-01-29T06:47:39.239Z,20.17
2023-01-29T06:50:06.164Z,22.37
2023-01-29T06:52:32.596Z,19.77
2023-01-29T06:54:58.968Z,18.00
2023-01-29T06:57:25.417Z,20.53
2023-01-29T06:59:51.872Z,19.13
2023-01-29T07:02:18.302Z,20.23
2023-01-29T07:04:44.823Z,19.67
2023-01-29T07:07:13.234Z,19.93
2023-01-29T07:09:41.081Z,18.77
2023-01-29T07:12:08.340Z,20.47
2023-01-29T07:14:34.713Z,18.97
2023-01-29T07:17:01.053Z,18.67
2023-01-29T07:19:27.492Z,19.00
2023-01-29T07:21:53.957Z,18.60
2023-01-29T07:24:20.685Z,18.30
2023-01-29T07:26:47.167Z,19.00
2023-01-29T07:29:13.801Z,18.23
2023-01-29T07:31:42.374Z,18.93
2023-01-29T07:34:11.340Z,17.10
2023-01-29T07:36:37.842Z,19.43
2023-01-29T07:39:04.293Z,18.57
2023-01-29T07:41:33.932Z,19.00
2023-01-29T07:44:00.395Z,18.17
2023-01-29T07:46:26.823Z,17.50
2023-01-29T07:48:53.142Z,18.03
2023-01-29T07:51:21.367Z,19.80
2023-01-29T07:53:47.811Z,16.83
2023-01-29T07:56:14.273Z,18.43
2023-01-29T07:58:40.767Z,19.60
2023-01-29T08:01:08.212Z,17.57
2023-01-29T08:03:35.882Z,19.43
2023-01-29T08:06:06.873Z,17.87
2023-01-29T08:08:33.376Z,16.53
2023-01-29T08:11:05.556Z,17.90
2023-01-29T08:13:32.702Z,18.25
2023-01-29T08:16:01.158Z,17.63
2023-01-29T08:18:27.880Z,17.73
2023-01-29T08:20:59.921Z,16.93
2023-01-29T08:23:26.347Z,17.33
2023-01-29T08:25:52.729Z,17.87
2023-01-29T08:28:19.207Z,18.33
2023-01-29T08:30:45.786Z,19.87
2023-01-29T08:33:12.222Z,18.50
2023-01-29T08:35:38.841Z,17.80
2023-01-29T08:38:07.326Z,15.73
2023-01-29T08:40:35.426Z,18.37
2023-01-29T08:43:05.484Z,17.03
2023-01-29T08:45:38.207Z,16.67
2023-01-29T08:48:07.993Z,17.42
2023-01-29T08:50:35.117Z,17.00
2023-01-29T08:53:03.757Z,17.97
2023-01-29T08:55:30.164Z,18.17
2023-01-29T08:57:59.283Z,16.70
2023-01-29T09:00:25.889Z,17.77
2023-01-29T09:02:52.499Z,15.23
2023-01-29T09:05:19.488Z,16.47
2023-01-29T09:07:46.246Z,14.70
2023-01-29T09:10:13.331Z,15.83
2023-01-29T09:12:48.897Z,15.97
2023-01-29T09:15:21.202Z,16.30
2023-01-29T09:20:16.860Z,16.07
2023-01-29T09:22:55.108Z,16.63
2023-01-29T09:25:21.688Z,18.30
2023-01-29T09:27:48.063Z,18.83
2023-01-29T09:30:14.992Z,16.70
2023-01-29T09:32:57.521Z,17.80
2023-01-29T09:35:24.249Z,17.00
2023-01-29T09:37:59.195Z,16.90
2023-01-29T09:40:38.278Z,15.83
2023-01-29T09:43:13.429Z,15.70
2023-01-29T09:45:57.233Z,16.97
2023-01-29T09:48:28.653Z,15.70
2023-01-29T09:50:58.467Z,16.13
2023-01-29T09:53:50.561Z,15.97
2023-01-29T09:56:22.193Z,16.48
2023-01-29T09:58:48.657Z,16.55
2023-01-29T10:01:29.675Z,19.23
2023-01-29T10:04:06.676Z,17.13
2023-01-29T10:07:01.471Z,14.53
2023-01-29T10:09:45.970Z,16.83
2023-01-29T10:12:30.642Z,15.93
2023-01-29T10:15:17.450Z,16.20
2023-01-29T10:18:08.920Z,17.20
2023-01-29T10:21:29.876Z,16.23
2023-01-29T10:24:17.582Z,19.33
2023-01-29T10:26:44.080Z,17.67
2023-01-29T10:29:18.112Z,17.07
2023-01-29T10:31:49.792Z,17.30
2023-01-29T10:34:44.176Z,17.80
2023-01-29T10:37:24.888Z,20.13
2023-01-29T10:39:51.336Z,17.73
2023-01-29T10:42:25.819Z,18.97
2023-01-29T10:45:19.610Z,18.73
2023-01-29T10:47:59.723Z,19.67
2023-01-29T10:50:47.770Z,20.43
2023-01-29T10:53:45.733Z,18.43
2023-01-29T10:56:25.214Z,18.37
2023-01-29T10:58:55.651Z,21.27
2023-01-29T11:01:22.302Z,19.43
2023-01-29T11:04:01.557Z,19.60
2023-01-29T11:06:34.109Z,18.47
2023-01-29T11:09:29.252Z,20.30
2023-01-29T11:12:11.095Z,22.23
2023-01-29T11:14:51.738Z,20.08
2023-01-29T11:17:20.526Z,17.97
2023-01-29T11:19:48.815Z,19.47
2023-01-29T11:22:19.923Z,21.70
2023-01-29T11:25:06.549Z,19.10
2023-01-29T11:27:35.468Z,20.87
2023-01-29T11:30:02.097Z,20.57
2023-01-29T11:32:32.630Z,18.83
2023-01-29T11:35:19.453Z,19.87
2023-01-29T11:37:47.476Z,20.67
2023-01-29T11:40:19.986Z,22.83
2023-01-29T11:42:47.192Z,20.73
2023-01-29T11:45:32.375Z,21.83
2023-01-29T11:47:59.699Z,22.60
2023-01-29T11:50:30.740Z,20.13
2023-01-29T11:52:59.899Z,20.50
2023-01-29T11:55:49.330Z,20.80
2023-01-29T11:58:23.393Z,19.40
2023-01-29T12:00:51.987Z,20.77
2023-01-29T12:03:28.934Z,20.70
2023-01-29T12:05:59.538Z,21.57
2023-01-29T12:08:33.734Z,23.53
2023-01-29T12:11:35.976Z,20.77
2023-01-29T12:14:06.193Z,21.88
2023-01-29T12:16:41.022Z,23.80
2023-01-29T12:19:31.696Z,22.63
2023-01-29T12:22:02.927Z,22.20
2023-01-29T12:24:54.932Z,24.67
2023-01-29T12:27:27.323Z,24.47
2023-01-29T12:30:11.367Z,21.00
2023-01-29T12:32:54.167Z,22.47
2023-01-29T12:35:30.648Z,22.70
2023-01-29T12:38:22.381Z,22.90
2023-01-29T12:41:00.472Z,22.10
2023-01-29T12:43:42.118Z,21.73
2023-01-29T12:46:18.627Z,21.73
2023-01-29T12:48:49.304Z,20.70
2023-01-29T12:51:20.712Z,22.77
2023-01-29T12:53:58.272Z,23.55
2023-01-29T12:56:47.160Z,24.10
2023-01-29T12:59:25.302Z,23.40
2023-01-29T13:02:13.175Z,22.47
2023-01-29T13:04:48.337Z,22.33
2023-01-29T13:07:24.747Z,24.03
2023-01-29T13:09:55.087Z,22.37
2023-01-29T13:12:23.050Z,22.03
2023-01-29T13:14:54.982Z,22.60
2023-01-29T13:17:42.280Z,21.92
2023-01-29T13:20:23.279Z,22.77
2023-01-29T13:22:53.037Z,26.30
2023-01-29T13:25:20.690Z,23.80
2023-01-29T13:27:48.587Z,24.60
2023-01-29T13:30:33.234Z,23.00
2023-01-29T13:33:10.223Z,22.03
2023-01-29T13:35:41.258Z,20.03
2023-01-29T13:38:29.445Z,24.33
2023-01-29T13:41:01.629Z,22.80
2023-01-29T13:46:12.730Z,24.10
2023-01-29T13:48:46.650Z,19.53
2023-01-29T13:51:19.517Z,21.40
2023-01-29T13:53:56.367Z,22.77
2023-01-29T13:56:33.116Z,22.07
2023-01-29T13:59:01.262Z,22.13
2023-01-29T14:01:49.360Z,23.93
2023-01-29T14:04:19.926Z,20.77
2023-01-29T14:07:03.178Z,20.73
2023-01-29T14:09:37.054Z,19.33
2023-01-29T14:12:21.818Z,21.92
2023-01-29T14:14:48.208Z,19.40
2023-01-29T14:17:16.477Z,23.13
2023-01-29T14:19:59.346Z,21.30
2023-01-29T14:22:28.507Z,21.92
2023-01-29T14:25:00.466Z,22.00
2023-01-29T14:27:28.057Z,20.65
2023-01-29T14:30:18.634Z,19.57
2023-01-29T14:32:50.007Z,20.27
2023-01-29T14:35:25.467Z,16.75
2023-01-29T14:37:56.274Z,21.77
2023-01-29T14:40:25.241Z,18.20
2023-01-29T14:43:20.795Z,19.73
2023-01-29T14:45:49.375Z,20.15
2023-01-29T14:48:34.166Z,19.23
2023-01-29T14:51:09.747Z,21.23
2023-01-29T14:54:23.124Z,19.97
2023-01-29T14:56:58.664Z,19.40
2023-01-29T14:59:43.673Z,20.43
2023-01-29T15:02:26.375Z,19.07
2023-01-29T15:04:56.695Z,20.17
2023-01-29T15:07:27.390Z,15.77
2023-01-29T15:10:24.387Z,17.77
2023-01-29T15:12:54.142Z,15.93
2023-01-29T15:15:26.122Z,18.37
2023-01-29T15:18:03.408Z,18.57
2023-01-29T15:20:29.947Z,16.77
2023-01-29T15:22:57.026Z,19.83
2023-01-29T15:25:23.962Z,16.83
2023-01-29T15:27:50.638Z,19.73
2023-01-29T15:30:31.477Z,16.80
2023-01-29T15:32:58.514Z,16.93
2023-01-29T15:35:39.597Z,17.63
2023-01-29T15:38:25.441Z,16.20
2023-01-29T15:40:57.851Z,18.47
2023-01-29T15:43:27.351Z,17.10
2023-01-29T15:45:59.935Z,19.90
2023-01-29T15:48:37.263Z,19.97
2023-01-29T15:51:07.866Z,20.93
2023-01-29T15:53:48.955Z,19.40
2023-01-29T15:56:22.397Z,19.20
2023-01-29T15:58:50.788Z,18.27
2023-01-29T16:01:17.884Z,19.53
2023-01-29T16:03:45.541Z,17.53
2023-01-29T16:06:12.342Z,19.07
2023-01-29T16:08:40.002Z,21.30
2023-01-29T16:11:07.644Z,16.10
2023-01-29T16:13:37.026Z,16.50
2023-01-29T16:16:19.266Z,20.40
2023-01-29T16:18:59.588Z,20.52
2023-01-29T16:21:38.178Z,17.60
2023-01-29T16:24:10.122Z,20.53
2023-01-29T16:26:38.321Z,18.02
2023-01-29T16:29:11.093Z,16.60
2023-01-29T16:31:38.623Z,19.73
2023-01-29T16:34:16.678Z,17.83
2023-01-29T16:36:55.230Z,19.63
2023-01-29T16:39:27.300Z,20.63
2023-01-29T16:42:24.120Z,20.92
2023-01-29T16:44:52.746Z,18.67
2023-01-29T16:47:27.415Z,20.93
2023-01-29T16:49:56.637Z,21.00
2023-01-29T16:52:32.280Z,20.03
2023-01-29T16:55:20.976Z,22.50
2023-01-29T16:57:53.256Z,18.87
2023-01-29T17:03:04.366Z,20.27
2023-01-29T17:05:33.555Z,21.30
2023-01-29T17:08:00.388Z,20.33
2023-01-29T17:10:28.912Z,20.60
2023-01-29T17:13:05.017Z,21.67
2023-01-29T17:15:43.710Z,20.30
2023-01-29T17:18:31.827Z,18.67
2023-01-29T17:20:58.478Z,21.27
2023-01-29T17:23:25.028Z,18.20
2023-01-29T17:25:51.777Z,20.93
2023-01-29T17:28:18.527Z,22.20
2023-01-29T17:30:56.625Z,17.93
2023-01-29T17:33:31.775Z,21.37
2023-01-29T17:35:58.241Z,20.20
2023-01-29T17:38:26.583Z,22.30
2023-01-29T17:41:00.262Z,22.07
2023-01-29T17:43:29.084Z,21.37
2023-01-29T17:45:55.789Z,22.47
2023-01-29T17:48:25.036Z,19.40
2023-01-29T17:50:54.206Z,19.20
2023-01-29T17:53:22.095Z,21.27
2023-01-29T17:55:49.043Z,23.20
2023-01-29T17:58:26.683Z,21.10
2023-01-29T18:00:54.367Z,22.70
2023-01-29T18:03:21.510Z,22.70
2023-01-29T18:05:49.668Z,19.70
2023-01-29T18:08:23.069Z,23.37
2023-01-29T18:10:49.565Z,19.33
2023-01-29T18:13:15.976Z,22.87
2023-01-29T18:15:42.326Z,21.57
2023-01-29T18:18:14.010Z,20.47
2023-01-29T18:20:40.787Z,22.50
2023-01-29T18:23:08.525Z,23.30
2023-01-29T18:25:35.254Z,21.63
2023-01-29T18:28:02.157Z,22.33
2023-01-29T18:30:28.907Z,22.33
2023-01-29T18:32:55.349Z,21.90
2023-01-29T18:35:22.158Z,22.20
2023-01-29T18:37:48.585Z,22.20
2023-01-29T18:40:17.148Z,22.07
2023-01-29T18:42:47.253Z,20.77
2023-01-29T18:45:13.989Z,22.07
2023-01-29T18:47:40.818Z,22.00
2023-01-29T18:50:08.764Z,21.67
2023-01-29T18:52:36.752Z,21.57
2023-01-29T18:55:03.245Z,22.63
2023-01-29T18:58:27.917Z,21.77
2023-01-29T19:00:16.632Z,22.23
2023-01-29T19:02:45.834Z,24.10
2023-01-29T19:05:12.397Z,23.53
2023-01-29T19:07:38.886Z,21.17
2023-01-29T19:10:09.219Z,20.20
2023-01-29T19:12:35.739Z,20.67
2023-01-29T19:15:02.156Z,20.60
2023-01-29T19:17:28.718Z,22.50
2023-01-29T19:19:56.499Z,20.57
2023-01-29T19:22:22.906Z,22.40
2023-01-29T19:24:49.415Z,21.67
2023-01-29T19:27:15.894Z,19.20
2023-01-29T19:29:42.487Z,20.47
2023-01-29T19:32:09.151Z,20.63
2023-01-29T19:34:35.489Z,19.80
2023-01-29T19:37:01.961Z,19.20
2023-01-29T19:39:32.388Z,21.37
2023-01-29T19:41:59.003Z,20.57
2023-01-29T19:44:25.439Z,20.63
2023-01-29T19:46:53.118Z,18.63
2023-01-29T19:49:19.571Z,20.33
2023-01-29T19:51:46.284Z,20.90
2023-01-29T19:54:12.865Z,21.83
2023-01-29T19:56:39.275Z,19.00
2023-01-29T19:59:07.355Z,19.47
2023-01-29T20:01:34.188Z,20.93
2023-01-29T20:04:00.831Z,20.23
2023-01-29T20:06:30.910Z,19.57
2023-01-29T20:08:58.043Z,21.17
2023-01-29T20:11:25.053Z,19.60
2023-01-29T20:13:56.641Z,19.87
2023-01-29T20:16:23.974Z,19.42
2023-01-29T20:18:50.833Z,20.87
2023-01-29T20:21:22.807Z,19.43
2023-01-29T20:23:50.598Z,21.98
2023-01-29T20:26:18.057Z,21.67
2023-01-29T20:28:47.961Z,20.10
2023-01-29T20:31:15.129Z,19.40
2023-01-29T20:33:42.063Z,20.67
2023-01-29T20:36:10.691Z,20.90
2023-01-29T20:38:37.574Z,22.27
2023-01-29T20:41:09.566Z,20.30
2023-01-29T20:43:36.233Z,21.83
2023-01-29T20:46:05.642Z,23.20
2023-01-29T20:48:35.444Z,23.83
2023-01-29T20:51:16.774Z,20.47
2023-01-29T20:53:48.032Z,24.17
2023-01-29T20:56:16.373Z,22.17
2023-01-29T20:58:43.286Z,25.50
2023-01-29T21:01:11.935Z,19.73
2023-01-29T21:03:39.783Z,21.67
2023-01-29T21:06:08.442Z,21.67
2023-01-29T21:08:35.962Z,25.00
2023-01-29T21:11:03.911Z,23.90
2023-01-29T21:13:30.844Z,22.73
2023-01-29T21:16:00.331Z,23.02
2023-01-29T21:18:26.851Z,25.05
2023-01-29T21:20:54.122Z,19.65
2023-01-29T21:23:20.683Z,21.23
2023-01-29T21:25:47.999Z,21.93
2023-01-29T21:28:15.527Z,23.27
2023-01-29T21:30:42.036Z,21.70
2023-01-29T21:33:08.677Z,22.80
2023-01-29T21:35:36.933Z,22.95
2023-01-29T21:38:04.060Z,24.75
2023-01-29T21:40:30.623Z,24.55
2023-01-29T21:43:12.336Z,20.63
2023-01-29T21:45:39.444Z,23.48
2023-01-29T21:48:06.179Z,21.13
2023-01-29T21:50:32.582Z,26.80
2023-01-29T21:52:59.085Z,25.27
2023-01-29T21:55:25.535Z,25.30
2023-01-29T21:57:52.060Z,22.80
2023-01-29T22:00:19.234Z,24.90
2023-01-29T22:02:46.200Z,25.13
2023-01-29T22:05:19.397Z,24.88
2023-01-29T22:07:49.893Z,27.33
2023-01-29T22:10:17.939Z,21.48
2023-01-29T22:12:44.922Z,21.35
2023-01-29T22:15:12.311Z,23.98
2023-01-29T22:17:41.166Z,28.55
2023-01-29T22:20:12.469Z,21.63
2023-01-29T22:22:38.908Z,23.87
2023-01-29T22:25:05.840Z,23.63
2023-01-29T22:27:33.582Z,22.17
2023-01-29T22:30:00.119Z,24.23
2023-01-29T22:32:26.958Z,23.63
2023-01-29T22:34:53.398Z,22.27
2023-01-29T22:37:22.838Z,21.67
2023-01-29T22:39:49.447Z,21.58
2023-01-29T22:42:18.706Z,23.83
2023-01-29T22:44:45.559Z,20.60
2023-01-29T22:47:14.513Z,21.08
2023-01-29T22:49:41.563Z,21.83
2023-01-29T22:52:11.106Z,23.70
2023-01-29T22:54:42.531Z,20.27
2023-01-29T22:57:14.184Z,18.50
2023-01-29T22:59:41.410Z,21.77
2023-01-29T23:02:08.683Z,19.90
2023-01-29T23:04:35.280Z,17.90
2023-01-29T23:07:02.151Z,19.45
2023-01-29T23:09:28.744Z,20.23
2023-01-29T23:11:55.261Z,19.85
2023-01-29T23:14:21.834Z,21.33
2023-01-29T23:16:48.319Z,19.20
2023-01-29T23:19:15.760Z,18.80
2023-01-29T23:21:42.164Z,19.00
2023-01-29T23:24:09.125Z,18.27
2023-01-29T23:26:57.474Z,19.40
2023-01-29T23:29:23.871Z,20.50
2023-01-29T23:31:50.378Z,18.60
2023-01-29T23:34:16.968Z,16.92
2023-01-29T23:36:43.683Z,16.17
2023-01-29T23:39:10.539Z,18.55
2023-01-29T23:41:36.970Z,17.92
2023-01-29T23:44:04.265Z,15.65
2023-01-29T23:46:31.003Z,16.77
2023-01-29T23:48:57.520Z,17.60
2023-01-29T23:51:24.222Z,17.52
2023-01-29T23:53:50.689Z,15.00
2023-01-29T23:56:17.364Z,14.52
2023-01-29T23:58:44.751Z,15.18
